sensor_id;sensor_type;location;lat;lon;timestamp;P1;durP1;ratioP1;P2;durP2;ratioP2
18082;SDS011;9168;51.194;6.840;2022-09-09T00:01:07;3.95;;;1.10;;
18082;SDS011;9168;51.194;6.840;2022-09-09T00:03:47;9.70;;;2.50;;
18082;SDS011;9168;51.194;6.840;2022-09-09T00:06:21;17.40;;;3.97;;
18082;SDS011;9168;51.194;6.840;2022-09-09T00:08:52;14.38;;;4.90;;
18082;SDS011;9168;51.194;6.840;2022-09-09T00:11:29;11.18;;;4.68;;
18082;SDS011;9168;51.194;6.840;2022-09-09T00:14:03;14.50;;;3.63;;
18082;SDS011;9168;51.194;6.840;2022-09-09T00:16:39;9.68;;;3.15;;
18082;SDS011;9168;51.194;6.840;2022-09-09T00:19:12;13.02;;;3.95;;
18082;SDS011;9168;51.194;6.840;2022-09-09T00:21:51;9.10;;;3.28;;
18082;SDS011;9168;51.194;6.840;2022-09-09T00:24:27;11.68;;;2.88;;
18082;SDS011;9168;51.194;6.840;2022-09-09T00:27:01;8.02;;;2.40;;
18082;SDS011;9168;51.194;6.840;2022-09-09T00:29:33;10.07;;;3.03;;
18082;SDS011;9168;51.194;6.840;2022-09-09T00:32:11;18.27;;;5.38;;
18082;SDS011;9168;51.194;6.840;2022-09-09T00:34:39;15.35;;;5.50;;
18082;SDS011;9168;51.194;6.840;2022-09-09T00:37:15;16.83;;;5.20;;
18082;SDS011;9168;51.194;6.840;2022-09-09T00:39:43;18.17;;;4.50;;
18082;SDS011;9168;51.194;6.840;2022-09-09T00:42:14;13.82;;;3.05;;
18082;SDS011;9168;51.194;6.840;2022-09-09T00:44:52;8.85;;;3.15;;
18082;SDS011;9168;51.194;6.840;2022-09-09T00:47:32;10.52;;;3.08;;
18082;SDS011;9168;51.194;6.840;2022-09-09T00:50:11;20.77;;;4.97;;
18082;SDS011;9168;51.194;6.840;2022-09-09T00:53:05;25.50;;;8.35;;
18082;SDS011;9168;51.194;6.840;2022-09-09T00:55:46;41.40;;;15.45;;
18082;SDS011;9168;51.194;6.840;2022-09-09T00:58:18;42.88;;;14.93;;
18082;SDS011;9168;51.194;6.840;2022-09-09T01:00:46;37.80;;;12.57;;
18082;SDS011;9168;51.194;6.840;2022-09-09T01:03:21;30.13;;;11.20;;
18082;SDS011;9168;51.194;6.840;2022-09-09T01:05:59;33.63;;;10.52;;
18082;SDS011;9168;51.194;6.840;2022-09-09T01:11:35;11.63;;;3.85;;
18082;SDS011;9168;51.194;6.840;2022-09-09T01:14:14;6.97;;;2.00;;
18082;SDS011;9168;51.194;6.840;2022-09-09T01:16:50;9.50;;;2.25;;
18082;SDS011;9168;51.194;6.840;2022-09-09T01:19:24;7.95;;;2.15;;
18082;SDS011;9168;51.194;6.840;2022-09-09T01:22:06;8.70;;;1.98;;
18082;SDS011;9168;51.194;6.840;2022-09-09T01:24:43;8.52;;;2.22;;
18082;SDS011;9168;51.194;6.840;2022-09-09T01:27:18;7.40;;;1.52;;
18082;SDS011;9168;51.194;6.840;2022-09-09T01:29:47;2.90;;;1.00;;
18082;SDS011;9168;51.194;6.840;2022-09-09T01:35:09;5.88;;;1.42;;
18082;SDS011;9168;51.194;6.840;2022-09-09T01:37:40;5.85;;;1.63;;
18082;SDS011;9168;51.194;6.840;2022-09-09T01:40:08;8.80;;;1.90;;
18082;SDS011;9168;51.194;6.840;2022-09-09T01:42:36;7.63;;;2.30;;
18082;SDS011;9168;51.194;6.840;2022-09-09T01:45:03;5.90;;;1.80;;
18082;SDS011;9168;51.194;6.840;2022-09-09T01:47:31;6.15;;;1.80;;
18082;SDS011;9168;51.194;6.840;2022-09-09T01:49:58;8.70;;;1.80;;
18082;SDS011;9168;51.194;6.840;2022-09-09T01:52:27;8.27;;;1.88;;
18082;SDS011;9168;51.194;6.840;2022-09-09T01:54:55;5.85;;;1.90;;
18082;SDS011;9168;51.194;6.840;2022-09-09T01:57:23;3.78;;;1.70;;
18082;SDS011;9168;51.194;6.840;2022-09-09T01:59:58;6.07;;;2.00;;
18082;SDS011;9168;51.194;6.840;2022-09-09T02:02:32;6.03;;;2.10;;
18082;SDS011;9168;51.194;6.840;2022-09-09T02:05:05;9.80;;;1.70;;
18082;SDS011;9168;51.194;6.840;2022-09-09T02:07:39;5.72;;;1.85;;
18082;SDS011;9168;51.194;6.840;2022-09-09T02:10:09;7.85;;;1.80;;
18082;SDS011;9168;51.194;6.840;2022-09-09T02:12:39;9.40;;;1.90;;
18082;SDS011;9168;51.194;6.840;2022-09-09T02:15:14;6.05;;;1.52;;
18082;SDS011;9168;51.194;6.840;2022-09-09T02:17:46;7.25;;;1.60;;
18082;SDS011;9168;51.194;6.840;2022-09-09T02:20:17;4.72;;;1.42;;
18082;SDS011;9168;51.194;6.840;2022-09-09T02:22:45;4.82;;;1.30;;
18082;SDS011;9168;51.194;6.840;2022-09-09T02:25:15;8.52;;;1.50;;
18082;SDS011;9168;51.194;6.840;2022-09-09T02:27:45;6.47;;;1.70;;
18082;SDS011;9168;51.194;6.840;2022-09-09T02:30:16;7.80;;;1.70;;
18082;SDS011;9168;51.194;6.840;2022-09-09T02:32:45;9.82;;;1.75;;
18082;SDS011;9168;51.194;6.840;2022-09-09T02:35:14;6.00;;;1.85;;
18082;SDS011;9168;51.194;6.840;2022-09-09T02:37:44;6.68;;;1.60;;
18082;SDS011;9168;51.194;6.840;2022-09-09T02:40:12;7.63;;;1.70;;
18082;SDS011;9168;51.194;6.840;2022-09-09T02:42:41;6.70;;;1.35;;
18082;SDS011;9168;51.194;6.840;2022-09-09T02:45:09;9.57;;;1.80;;
18082;SDS011;9168;51.194;6.840;2022-09-09T02:47:40;10.25;;;1.70;;
18082;SDS011;9168;51.194;6.840;2022-09-09T02:50:15;10.63;;;1.48;;
18082;SDS011;9168;51.194;6.840;2022-09-09T02:52:48;7.22;;;1.30;;
18082;SDS011;9168;51.194;6.840;2022-09-09T02:55:28;6.53;;;1.10;;
18082;SDS011;9168;51.194;6.840;2022-09-09T02:58:05;4.68;;;1.33;;
18082;SDS011;9168;51.194;6.840;2022-09-09T03:00:36;5.85;;;1.52;;
18082;SDS011;9168;51.194;6.840;2022-09-09T03:03:05;3.65;;;1.13;;
18082;SDS011;9168;51.194;6.840;2022-09-09T03:05:34;7.63;;;1.67;;
18082;SDS011;9168;51.194;6.840;2022-09-09T03:08:01;8.15;;;1.40;;
18082;SDS011;9168;51.194;6.840;2022-09-09T03:10:28;9.40;;;1.73;;
18082;SDS011;9168;51.194;6.840;2022-09-09T03:12:55;5.88;;;1.23;;
18082;SDS011;9168;51.194;6.840;2022-09-09T03:15:22;7.25;;;1.48;;
18082;SDS011;9168;51.194;6.840;2022-09-09T03:17:49;9.25;;;2.17;;
18082;SDS011;9168;51.194;6.840;2022-09-09T03:20:17;6.93;;;1.45;;
18082;SDS011;9168;51.194;6.840;2022-09-09T03:22:44;7.47;;;1.10;;
18082;SDS011;9168;51.194;6.840;2022-09-09T03:25:11;4.68;;;1.40;;
18082;SDS011;9168;51.194;6.840;2022-09-09T03:27:38;6.75;;;1.50;;
18082;SDS011;9168;51.194;6.840;2022-09-09T03:30:05;6.22;;;1.27;;
18082;SDS011;9168;51.194;6.840;2022-09-09T03:32:33;6.35;;;1.60;;
18082;SDS011;9168;51.194;6.840;2022-09-09T03:35:00;6.53;;;1.20;;
18082;SDS011;9168;51.194;6.840;2022-09-09T03:37:28;9.32;;;1.50;;
18082;SDS011;9168;51.194;6.840;2022-09-09T03:39:56;5.50;;;1.30;;
18082;SDS011;9168;51.194;6.840;2022-09-09T03:42:24;8.95;;;1.88;;
18082;SDS011;9168;51.194;6.840;2022-09-09T03:44:52;7.68;;;1.52;;
18082;SDS011;9168;51.194;6.840;2022-09-09T03:47:19;7.10;;;1.45;;
18082;SDS011;9168;51.194;6.840;2022-09-09T03:49:47;9.23;;;1.48;;
18082;SDS011;9168;51.194;6.840;2022-09-09T03:52:14;7.57;;;1.85;;
18082;SDS011;9168;51.194;6.840;2022-09-09T03:54:43;6.25;;;1.80;;
18082;SDS011;9168;51.194;6.840;2022-09-09T03:57:10;10.35;;;2.03;;
18082;SDS011;9168;51.194;6.840;2022-09-09T03:59:37;6.47;;;1.50;;
18082;SDS011;9168;51.194;6.840;2022-09-09T04:02:04;4.05;;;1.35;;
18082;SDS011;9168;51.194;6.840;2022-09-09T04:04:31;7.95;;;1.92;;
18082;SDS011;9168;51.194;6.840;2022-09-09T04:06:57;6.10;;;1.63;;
18082;SDS011;9168;51.194;6.840;2022-09-09T04:09:24;8.30;;;1.40;;
18082;SDS011;9168;51.194;6.840;2022-09-09T04:11:52;7.25;;;1.70;;
18082;SDS011;9168;51.194;6.840;2022-09-09T04:14:20;8.15;;;1.58;;
18082;SDS011;9168;51.194;6.840;2022-09-09T04:16:47;6.82;;;1.40;;
18082;SDS011;9168;51.194;6.840;2022-09-09T04:19:14;12.32;;;2.05;;
18082;SDS011;9168;51.194;6.840;2022-09-09T04:21:41;13.48;;;2.10;;
18082;SDS011;9168;51.194;6.840;2022-09-09T04:24:08;9.63;;;2.05;;
18082;SDS011;9168;51.194;6.840;2022-09-09T04:26:35;12.50;;;1.92;;
18082;SDS011;9168;51.194;6.840;2022-09-09T04:29:04;8.07;;;1.83;;
18082;SDS011;9168;51.194;6.840;2022-09-09T04:31:32;11.02;;;2.13;;
18082;SDS011;9168;51.194;6.840;2022-09-09T04:33:59;7.60;;;1.50;;
18082;SDS011;9168;51.194;6.840;2022-09-09T04:36:30;11.35;;;1.98;;
18082;SDS011;9168;51.194;6.840;2022-09-09T04:38:57;11.73;;;2.00;;
18082;SDS011;9168;51.194;6.840;2022-09-09T04:41:24;13.40;;;1.95;;
18082;SDS011;9168;51.194;6.840;2022-09-09T04:43:51;11.68;;;2.15;;
18082;SDS011;9168;51.194;6.840;2022-09-09T04:46:20;11.05;;;1.90;;
18082;SDS011;9168;51.194;6.840;2022-09-09T04:48:48;12.93;;;2.30;;
18082;SDS011;9168;51.194;6.840;2022-09-09T04:51:15;6.60;;;2.40;;
18082;SDS011;9168;51.194;6.840;2022-09-09T04:53:42;10.63;;;1.95;;
18082;SDS011;9168;51.194;6.840;2022-09-09T04:56:09;10.60;;;2.13;;
18082;SDS011;9168;51.194;6.840;2022-09-09T04:58:39;10.88;;;1.90;;
18082;SDS011;9168;51.194;6.840;2022-09-09T05:01:08;9.73;;;2.03;;
18082;SDS011;9168;51.194;6.840;2022-09-09T05:03:38;10.80;;;2.10;;
18082;SDS011;9168;51.194;6.840;2022-09-09T05:06:05;13.43;;;2.38;;
18082;SDS011;9168;51.194;6.840;2022-09-09T05:08:34;10.82;;;1.98;;
18082;SDS011;9168;51.194;6.840;2022-09-09T05:11:01;14.15;;;2.45;;
18082;SDS011;9168;51.194;6.840;2022-09-09T05:13:29;13.15;;;2.63;;
18082;SDS011;9168;51.194;6.840;2022-09-09T05:15:57;12.05;;;2.25;;
18082;SDS011;9168;51.194;6.840;2022-09-09T05:18:24;14.75;;;2.13;;
18082;SDS011;9168;51.194;6.840;2022-09-09T05:20:56;15.88;;;2.28;;
18082;SDS011;9168;51.194;6.840;2022-09-09T05:23:25;19.75;;;2.30;;
18082;SDS011;9168;51.194;6.840;2022-09-09T05:25:55;14.57;;;2.05;;
18082;SDS011;9168;51.194;6.840;2022-09-09T05:28:23;9.45;;;1.60;;
18082;SDS011;9168;51.194;6.840;2022-09-09T05:30:57;14.27;;;2.30;;
18082;SDS011;9168;51.194;6.840;2022-09-09T05:33:26;10.57;;;2.08;;
18082;SDS011;9168;51.194;6.840;2022-09-09T05:35:58;14.88;;;2.42;;
18082;SDS011;9168;51.194;6.840;2022-09-09T05:38:26;11.65;;;2.28;;
18082;SDS011;9168;51.194;6.840;2022-09-09T05:40:54;6.43;;;1.98;;
18082;SDS011;9168;51.194;6.840;2022-09-09T05:43:22;16.73;;;2.30;;
18082;SDS011;9168;51.194;6.840;2022-09-09T05:45:58;16.08;;;2.10;;
18082;SDS011;9168;51.194;6.840;2022-09-09T05:48:28;17.73;;;2.40;;
18082;SDS011;9168;51.194;6.840;2022-09-09T05:50:55;17.80;;;3.05;;
18082;SDS011;9168;51.194;6.840;2022-09-09T05:53:24;19.35;;;2.38;;
18082;SDS011;9168;51.194;6.840;2022-09-09T05:55:57;11.63;;;2.42;;
18082;SDS011;9168;51.194;6.840;2022-09-09T05:58:25;13.40;;;2.70;;
18082;SDS011;9168;51.194;6.840;2022-09-09T06:00:52;16.40;;;2.13;;
18082;SDS011;9168;51.194;6.840;2022-09-09T06:03:25;17.42;;;2.70;;
18082;SDS011;9168;51.194;6.840;2022-09-09T06:05:56;12.05;;;2.45;;
18082;SDS011;9168;51.194;6.840;2022-09-09T06:08:25;18.20;;;2.88;;
18082;SDS011;9168;51.194;6.840;2022-09-09T06:10:52;10.60;;;2.13;;
18082;SDS011;9168;51.194;6.840;2022-09-09T06:13:19;14.43;;;2.08;;
18082;SDS011;9168;51.194;6.840;2022-09-09T06:15:49;12.93;;;2.35;;
18082;SDS011;9168;51.194;6.840;2022-09-09T06:18:17;11.43;;;2.63;;
18082;SDS011;9168;51.194;6.840;2022-09-09T06:20:52;11.60;;;2.42;;
18082;SDS011;9168;51.194;6.840;2022-09-09T06:23:20;14.57;;;2.90;;
18082;SDS011;9168;51.194;6.840;2022-09-09T06:25:48;10.68;;;2.22;;
18082;SDS011;9168;51.194;6.840;2022-09-09T06:28:16;13.43;;;2.47;;
18082;SDS011;9168;51.194;6.840;2022-09-09T06:30:44;14.93;;;2.30;;
18082;SDS011;9168;51.194;6.840;2022-09-09T06:33:12;12.95;;;2.25;;
18082;SDS011;9168;51.194;6.840;2022-09-09T06:35:39;10.52;;;1.60;;
18082;SDS011;9168;51.194;6.840;2022-09-09T06:38:05;18.23;;;2.05;;
18082;SDS011;9168;51.194;6.840;2022-09-09T06:40:33;8.60;;;1.95;;
18082;SDS011;9168;51.194;6.840;2022-09-09T06:43:01;11.55;;;1.90;;
18082;SDS011;9168;51.194;6.840;2022-09-09T06:45:28;18.25;;;1.90;;
18082;SDS011;9168;51.194;6.840;2022-09-09T06:47:56;13.13;;;1.85;;
18082;SDS011;9168;51.194;6.840;2022-09-09T06:50:23;12.13;;;1.65;;
18082;SDS011;9168;51.194;6.840;2022-09-09T06:52:50;13.68;;;2.25;;
18082;SDS011;9168;51.194;6.840;2022-09-09T06:55:17;7.40;;;1.73;;
18082;SDS011;9168;51.194;6.840;2022-09-09T06:57:44;6.13;;;1.60;;
18082;SDS011;9168;51.194;6.840;2022-09-09T07:00:13;12.48;;;2.08;;
18082;SDS011;9168;51.194;6.840;2022-09-09T07:02:40;8.95;;;2.05;;
18082;SDS011;9168;51.194;6.840;2022-09-09T07:05:07;9.45;;;1.73;;
18082;SDS011;9168;51.194;6.840;2022-09-09T07:07:34;9.90;;;2.00;;
18082;SDS011;9168;51.194;6.840;2022-09-09T07:10:02;12.48;;;1.83;;
18082;SDS011;9168;51.194;6.840;2022-09-09T07:12:30;7.80;;;1.70;;
18082;SDS011;9168;51.194;6.840;2022-09-09T07:14:57;15.77;;;2.22;;
18082;SDS011;9168;51.194;6.840;2022-09-09T07:17:25;13.05;;;1.92;;
18082;SDS011;9168;51.194;6.840;2022-09-09T07:19:53;7.35;;;1.70;;
18082;SDS011;9168;51.194;6.840;2022-09-09T07:22:20;9.02;;;1.83;;
18082;SDS011;9168;51.194;6.840;2022-09-09T07:24:47;8.13;;;1.63;;
18082;SDS011;9168;51.194;6.840;2022-09-09T07:27:14;11.98;;;1.90;;
18082;SDS011;9168;51.194;6.840;2022-09-09T07:29:41;9.18;;;1.83;;
18082;SDS011;9168;51.194;6.840;2022-09-09T07:32:08;11.10;;;2.10;;
18082;SDS011;9168;51.194;6.840;2022-09-09T07:34:36;13.02;;;2.35;;
18082;SDS011;9168;51.194;6.840;2022-09-09T07:37:03;12.90;;;2.03;;
18082;SDS011;9168;51.194;6.840;2022-09-09T07:39:30;8.40;;;1.90;;
18082;SDS011;9168;51.194;6.840;2022-09-09T07:41:57;12.52;;;2.10;;
18082;SDS011;9168;51.194;6.840;2022-09-09T07:44:24;8.95;;;1.83;;
18082;SDS011;9168;51.194;6.840;2022-09-09T07:46:51;7.82;;;1.60;;
18082;SDS011;9168;51.194;6.840;2022-09-09T07:49:18;10.88;;;1.85;;
18082;SDS011;9168;51.194;6.840;2022-09-09T07:51:47;9.43;;;1.83;;
18082;SDS011;9168;51.194;6.840;2022-09-09T07:54:15;9.75;;;2.20;;
18082;SDS011;9168;51.194;6.840;2022-09-09T07:56:45;12.27;;;1.70;;
18082;SDS011;9168;51.194;6.840;2022-09-09T07:59:13;7.60;;;1.70;;
18082;SDS011;9168;51.194;6.840;2022-09-09T08:01:40;10.82;;;1.90;;
18082;SDS011;9168;51.194;6.840;2022-09-09T08:04:09;10.55;;;1.95;;
18082;SDS011;9168;51.194;6.840;2022-09-09T08:06:41;9.65;;;1.73;;
18082;SDS011;9168;51.194;6.840;2022-09-09T08:09:11;11.65;;;2.10;;
18082;SDS011;9168;51.194;6.840;2022-09-09T08:11:39;7.80;;;1.90;;
18082;SDS011;9168;51.194;6.840;2022-09-09T08:14:07;6.60;;;1.58;;
18082;SDS011;9168;51.194;6.840;2022-09-09T08:16:35;10.77;;;1.67;;
18082;SDS011;9168;51.194;6.840;2022-09-09T08:19:05;10.77;;;1.63;;
18082;SDS011;9168;51.194;6.840;2022-09-09T08:21:33;8.43;;;1.58;;
18082;SDS011;9168;51.194;6.840;2022-09-09T08:24:01;10.68;;;2.10;;
18082;SDS011;9168;51.194;6.840;2022-09-09T08:26:32;11.35;;;1.88;;
18082;SDS011;9168;51.194;6.840;2022-09-09T08:29:00;10.82;;;1.88;;
18082;SDS011;9168;51.194;6.840;2022-09-09T08:31:30;9.98;;;1.95;;
18082;SDS011;9168;51.194;6.840;2022-09-09T08:33:58;8.18;;;1.98;;
18082;SDS011;9168;51.194;6.840;2022-09-09T08:36:27;11.50;;;2.13;;
18082;SDS011;9168;51.194;6.840;2022-09-09T08:38:56;7.43;;;1.60;;
18082;SDS011;9168;51.194;6.840;2022-09-09T08:41:37;12.52;;;2.28;;
18082;SDS011;9168;51.194;6.840;2022-09-09T08:44:14;12.68;;;1.52;;
18082;SDS011;9168;51.194;6.840;2022-09-09T08:46:51;12.70;;;2.05;;
18082;SDS011;9168;51.194;6.840;2022-09-09T08:49:34;10.40;;;1.90;;
18082;SDS011;9168;51.194;6.840;2022-09-09T08:52:08;9.00;;;1.80;;
18082;SDS011;9168;51.194;6.840;2022-09-09T08:54:43;13.63;;;1.50;;
18082;SDS011;9168;51.194;6.840;2022-09-09T08:57:13;7.00;;;1.58;;
18082;SDS011;9168;51.194;6.840;2022-09-09T08:59:45;9.35;;;1.70;;
18082;SDS011;9168;51.194;6.840;2022-09-09T09:02:14;9.85;;;2.20;;
18082;SDS011;9168;51.194;6.840;2022-09-09T09:04:58;8.52;;;1.65;;
18082;SDS011;9168;51.194;6.840;2022-09-09T09:07:39;7.65;;;1.73;;
18082;SDS011;9168;51.194;6.840;2022-09-09T09:10:19;9.27;;;1.67;;
18082;SDS011;9168;51.194;6.840;2022-09-09T09:13:01;8.88;;;1.55;;
18082;SDS011;9168;51.194;6.840;2022-09-09T09:15:30;15.25;;;2.25;;
18082;SDS011;9168;51.194;6.840;2022-09-09T09:18:02;7.70;;;1.50;;
18082;SDS011;9168;51.194;6.840;2022-09-09T09:20:30;9.63;;;2.13;;
18082;SDS011;9168;51.194;6.840;2022-09-09T09:23:04;10.52;;;2.05;;
18082;SDS011;9168;51.194;6.840;2022-09-09T09:25:34;12.27;;;1.63;;
18082;SDS011;9168;51.194;6.840;2022-09-09T09:28:14;10.27;;;1.50;;
18082;SDS011;9168;51.194;6.840;2022-09-09T09:30:44;6.80;;;1.60;;
18082;SDS011;9168;51.194;6.840;2022-09-09T09:33:18;6.25;;;1.40;;
18082;SDS011;9168;51.194;6.840;2022-09-09T09:35:49;7.80;;;1.92;;
18082;SDS011;9168;51.194;6.840;2022-09-09T09:38:17;4.95;;;1.30;;
18082;SDS011;9168;51.194;6.840;2022-09-09T09:40:50;5.28;;;1.55;;
18082;SDS011;9168;51.194;6.840;2022-09-09T09:43:21;6.45;;;1.25;;
18082;SDS011;9168;51.194;6.840;2022-09-09T09:45:50;7.70;;;1.58;;
18082;SDS011;9168;51.194;6.840;2022-09-09T09:48:17;8.77;;;1.67;;
18082;SDS011;9168;51.194;6.840;2022-09-09T09:50:50;5.72;;;1.73;;
18082;SDS011;9168;51.194;6.840;2022-09-09T09:53:23;7.45;;;1.50;;
18082;SDS011;9168;51.194;6.840;2022-09-09T09:55:53;14.40;;;2.13;;
18082;SDS011;9168;51.194;6.840;2022-09-09T09:58:24;9.15;;;1.55;;
18082;SDS011;9168;51.194;6.840;2022-09-09T10:00:53;6.93;;;1.38;;
18082;SDS011;9168;51.194;6.840;2022-09-09T10:03:21;4.35;;;1.20;;
18082;SDS011;9168;51.194;6.840;2022-09-09T10:05:51;7.05;;;1.35;;
18082;SDS011;9168;51.194;6.840;2022-09-09T10:08:19;3.97;;;1.40;;
18082;SDS011;9168;51.194;6.840;2022-09-09T10:10:49;7.55;;;1.40;;
18082;SDS011;9168;51.194;6.840;2022-09-09T10:13:28;5.35;;;1.30;;
18082;SDS011;9168;51.194;6.840;2022-09-09T10:16:05;9.05;;;1.50;;
18082;SDS011;9168;51.194;6.840;2022-09-09T10:18:50;6.63;;;1.65;;
18082;SDS011;9168;51.194;6.840;2022-09-09T10:24:28;10.45;;;1.70;;
18082;SDS011;9168;51.194;6.840;2022-09-09T10:27:09;8.07;;;1.70;;
18082;SDS011;9168;51.194;6.840;2022-09-09T10:29:53;6.38;;;1.40;;
18082;SDS011;9168;51.194;6.840;2022-09-09T10:32:37;5.47;;;1.30;;
18082;SDS011;9168;51.194;6.840;2022-09-09T10:35:12;6.25;;;2.13;;
18082;SDS011;9168;51.194;6.840;2022-09-09T10:40:37;7.88;;;1.52;;
18082;SDS011;9168;51.194;6.840;2022-09-09T10:43:12;8.15;;;1.70;;
18082;SDS011;9168;51.194;6.840;2022-09-09T10:45:51;4.82;;;1.10;;
18082;SDS011;9168;51.194;6.840;2022-09-09T10:48:30;7.65;;;1.70;;
18082;SDS011;9168;51.194;6.840;2022-09-09T10:51:14;7.00;;;1.35;;
18082;SDS011;9168;51.194;6.840;2022-09-09T10:53:52;9.20;;;1.20;;
18082;SDS011;9168;51.194;6.840;2022-09-09T10:56:29;7.20;;;1.20;;
18082;SDS011;9168;51.194;6.840;2022-09-09T10:58:58;5.43;;;1.17;;
18082;SDS011;9168;51.194;6.840;2022-09-09T11:01:31;4.20;;;1.40;;
18082;SDS011;9168;51.194;6.840;2022-09-09T11:04:05;4.90;;;1.25;;
18082;SDS011;9168;51.194;6.840;2022-09-09T11:06:39;3.42;;;1.17;;
18082;SDS011;9168;51.194;6.840;2022-09-09T11:09:09;6.20;;;1.50;;
18082;SDS011;9168;51.194;6.840;2022-09-09T11:11:43;5.30;;;1.20;;
18082;SDS011;9168;51.194;6.840;2022-09-09T11:14:18;7.85;;;1.30;;
18082;SDS011;9168;51.194;6.840;2022-09-09T11:16:51;10.95;;;1.38;;
18082;SDS011;9168;51.194;6.840;2022-09-09T11:19:24;3.88;;;1.10;;
18082;SDS011;9168;51.194;6.840;2022-09-09T11:21:54;8.13;;;2.00;;
18082;SDS011;9168;51.194;6.840;2022-09-09T11:24:23;8.60;;;1.60;;
18082;SDS011;9168;51.194;6.840;2022-09-09T11:26:55;7.82;;;1.35;;
18082;SDS011;9168;51.194;6.840;2022-09-09T11:32:45;7.25;;;1.60;;
18082;SDS011;9168;51.194;6.840;2022-09-09T11:35:45;3.50;;;1.05;;
18082;SDS011;9168;51.194;6.840;2022-09-09T11:38:25;5.97;;;1.23;;
18082;SDS011;9168;51.194;6.840;2022-09-09T11:40:56;3.63;;;1.15;;
18082;SDS011;9168;51.194;6.840;2022-09-09T11:43:27;6.32;;;1.27;;
18082;SDS011;9168;51.194;6.840;2022-09-09T11:45:58;4.35;;;1.10;;
18082;SDS011;9168;51.194;6.840;2022-09-09T11:48:31;5.13;;;1.42;;
18082;SDS011;9168;51.194;6.840;2022-09-09T11:51:00;3.72;;;1.13;;
18082;SDS011;9168;51.194;6.840;2022-09-09T11:53:30;6.43;;;1.65;;
18082;SDS011;9168;51.194;6.840;2022-09-09T11:56:01;6.97;;;1.23;;
18082;SDS011;9168;51.194;6.840;2022-09-09T11:58:33;8.18;;;1.27;;
18082;SDS011;9168;51.194;6.840;2022-09-09T12:01:12;6.10;;;1.40;;
18082;SDS011;9168;51.194;6.840;2022-09-09T12:03:55;9.02;;;1.60;;
18082;SDS011;9168;51.194;6.840;2022-09-09T12:06:44;5.90;;;1.10;;
18082;SDS011;9168;51.194;6.840;2022-09-09T12:09:17;7.47;;;1.30;;
18082;SDS011;9168;51.194;6.840;2022-09-09T12:11:51;11.35;;;1.92;;
18082;SDS011;9168;51.194;6.840;2022-09-09T12:14:19;10.77;;;2.42;;
18082;SDS011;9168;51.194;6.840;2022-09-09T12:16:48;5.85;;;1.45;;
18082;SDS011;9168;51.194;6.840;2022-09-09T12:19:18;6.80;;;1.65;;
18082;SDS011;9168;51.194;6.840;2022-09-09T12:21:49;6.40;;;1.65;;
18082;SDS011;9168;51.194;6.840;2022-09-09T12:24:22;9.43;;;2.10;;
18082;SDS011;9168;51.194;6.840;2022-09-09T12:26:57;7.53;;;1.58;;
18082;SDS011;9168;51.194;6.840;2022-09-09T12:29:28;8.50;;;2.08;;
18082;SDS011;9168;51.194;6.840;2022-09-09T12:32:05;6.75;;;2.25;;
18082;SDS011;9168;51.194;6.840;2022-09-09T12:34:40;14.10;;;2.40;;
18082;SDS011;9168;51.194;6.840;2022-09-09T12:37:12;6.90;;;2.15;;
18082;SDS011;9168;51.194;6.840;2022-09-09T12:39:44;9.88;;;2.13;;
18082;SDS011;9168;51.194;6.840;2022-09-09T12:42:16;7.13;;;2.13;;
18082;SDS011;9168;51.194;6.840;2022-09-09T12:44:55;9.10;;;1.55;;
18082;SDS011;9168;51.194;6.840;2022-09-09T12:47:24;8.80;;;1.80;;
18082;SDS011;9168;51.194;6.840;2022-09-09T12:49:57;10.85;;;1.88;;
18082;SDS011;9168;51.194;6.840;2022-09-09T12:52:26;7.00;;;1.80;;
18082;SDS011;9168;51.194;6.840;2022-09-09T12:54:57;6.57;;;2.40;;
18082;SDS011;9168;51.194;6.840;2022-09-09T12:57:29;11.25;;;2.05;;
18082;SDS011;9168;51.194;6.840;2022-09-09T13:00:06;10.27;;;2.10;;
18082;SDS011;9168;51.194;6.840;2022-09-09T13:02:44;26.52;;;3.50;;
18082;SDS011;9168;51.194;6.840;2022-09-09T13:05:17;14.10;;;2.33;;
18082;SDS011;9168;51.194;6.840;2022-09-09T13:07:46;10.90;;;1.88;;
18082;SDS011;9168;51.194;6.840;2022-09-09T13:10:14;9.18;;;1.45;;
18082;SDS011;9168;51.194;6.840;2022-09-09T13:12:43;10.68;;;1.67;;
18082;SDS011;9168;51.194;6.840;2022-09-09T13:15:12;9.52;;;2.03;;
18082;SDS011;9168;51.194;6.840;2022-09-09T13:17:48;7.63;;;1.63;;
18082;SDS011;9168;51.194;6.840;2022-09-09T13:20:19;7.75;;;1.55;;
18082;SDS011;9168;51.194;6.840;2022-09-09T13:22:48;7.13;;;1.55;;
18082;SDS011;9168;51.194;6.840;2022-09-09T13:25:18;6.60;;;1.10;;
18082;SDS011;9168;51.194;6.840;2022-09-09T13:27:52;10.80;;;1.63;;
18082;SDS011;9168;51.194;6.840;2022-09-09T13:30:22;7.97;;;1.42;;
18082;SDS011;9168;51.194;6.840;2022-09-09T13:33:01;9.52;;;1.95;;
18082;SDS011;9168;51.194;6.840;2022-09-09T13:35:34;9.50;;;1.75;;
18082;SDS011;9168;51.194;6.840;2022-09-09T13:38:12;7.63;;;2.15;;
18082;SDS011;9168;51.194;6.840;2022-09-09T13:40:40;6.75;;;2.10;;
18082;SDS011;9168;51.194;6.840;2022-09-09T13:43:18;10.73;;;2.35;;
18082;SDS011;9168;51.194;6.840;2022-09-09T13:45:52;6.38;;;1.65;;
18082;SDS011;9168;51.194;6.840;2022-09-09T13:48:23;8.80;;;1.77;;
18082;SDS011;9168;51.194;6.840;2022-09-09T13:50:56;7.57;;;1.50;;
18082;SDS011;9168;51.194;6.840;2022-09-09T13:53:25;6.63;;;1.92;;
18082;SDS011;9168;51.194;6.840;2022-09-09T13:55:52;6.45;;;2.05;;
18082;SDS011;9168;51.194;6.840;2022-09-09T13:58:19;10.30;;;2.00;;
18082;SDS011;9168;51.194;6.840;2022-09-09T14:00:47;7.03;;;2.03;;
18082;SDS011;9168;51.194;6.840;2022-09-09T14:03:15;7.95;;;1.45;;
18082;SDS011;9168;51.194;6.840;2022-09-09T14:05:42;6.80;;;2.08;;
18082;SDS011;9168;51.194;6.840;2022-09-09T14:08:14;7.80;;;1.55;;
18082;SDS011;9168;51.194;6.840;2022-09-09T14:10:46;5.65;;;1.63;;
18082;SDS011;9168;51.194;6.840;2022-09-09T14:13:13;6.70;;;1.42;;
18082;SDS011;9168;51.194;6.840;2022-09-09T14:15:40;3.58;;;1.45;;
18082;SDS011;9168;51.194;6.840;2022-09-09T14:18:08;4.95;;;1.38;;
18082;SDS011;9168;51.194;6.840;2022-09-09T14:20:38;3.00;;;1.30;;
18082;SDS011;9168;51.194;6.840;2022-09-09T14:23:05;5.38;;;1.30;;
18082;SDS011;9168;51.194;6.840;2022-09-09T14:25:37;9.00;;;1.40;;
18082;SDS011;9168;51.194;6.840;2022-09-09T14:28:07;8.80;;;2.38;;
18082;SDS011;9168;51.194;6.840;2022-09-09T14:30:36;8.85;;;1.63;;
18082;SDS011;9168;51.194;6.840;2022-09-09T14:33:03;10.68;;;1.58;;
18082;SDS011;9168;51.194;6.840;2022-09-09T14:35:30;5.15;;;1.45;;
18082;SDS011;9168;51.194;6.840;2022-09-09T14:37:58;4.22;;;1.33;;
18082;SDS011;9168;51.194;6.840;2022-09-09T14:40:26;6.03;;;1.50;;
18082;SDS011;9168;51.194;6.840;2022-09-09T14:42:54;3.33;;;1.05;;
18082;SDS011;9168;51.194;6.840;2022-09-09T14:45:21;3.45;;;1.20;;
18082;SDS011;9168;51.194;6.840;2022-09-09T14:47:49;5.90;;;1.10;;
18082;SDS011;9168;51.194;6.840;2022-09-09T14:50:17;18.38;;;2.88;;
18082;SDS011;9168;51.194;6.840;2022-09-09T14:52:44;9.43;;;2.00;;
18082;SDS011;9168;51.194;6.840;2022-09-09T14:55:11;13.68;;;2.10;;
18082;SDS011;9168;51.194;6.840;2022-09-09T14:57:38;10.35;;;1.55;;
18082;SDS011;9168;51.194;6.840;2022-09-09T15:00:08;4.43;;;1.08;;
18082;SDS011;9168;51.194;6.840;2022-09-09T15:02:36;6.20;;;1.23;;
18082;SDS011;9168;51.194;6.840;2022-09-09T15:05:03;5.28;;;1.27;;
18082;SDS011;9168;51.194;6.840;2022-09-09T15:07:30;5.03;;;1.15;;
18082;SDS011;9168;51.194;6.840;2022-09-09T15:09:57;4.15;;;1.10;;
18082;SDS011;9168;51.194;6.840;2022-09-09T15:12:24;4.75;;;1.40;;
18082;SDS011;9168;51.194;6.840;2022-09-09T15:14:53;7.68;;;1.20;;
18082;SDS011;9168;51.194;6.840;2022-09-09T15:17:22;6.18;;;1.20;;
18082;SDS011;9168;51.194;6.840;2022-09-09T15:19:52;3.97;;;0.98;;
18082;SDS011;9168;51.194;6.840;2022-09-09T15:22:20;2.13;;;0.88;;
18082;SDS011;9168;51.194;6.840;2022-09-09T15:24:47;4.05;;;1.08;;
18082;SDS011;9168;51.194;6.840;2022-09-09T15:27:13;4.80;;;1.10;;
18082;SDS011;9168;51.194;6.840;2022-09-09T15:29:40;8.43;;;1.13;;
18082;SDS011;9168;51.194;6.840;2022-09-09T15:32:08;9.45;;;1.35;;